Johnson Lake, Nebraska
Current Conditions -  °F | °C
As of 3:35 PM on Saturday 25 Oct 2014 (Local Time) from KLXN Reporting Station
Clear Clear  
Wind Chill: 77°   Ceiling: Unl
Heat Index: 78°   Visibility: 10mi
Dew Point: 45°   Wind: 9mph
Humidity: 32%   Direction: 100°E
Pressure: 30.04"   Gusts: NA
Location:  40.5034°N, 99.8442°W
Report Text: KLXN 252035Z AUTO 10008KT 10SM CLR 25/07 A3004 RMK AO2 T02510072
Loading
Personal Weather Stations






























Interactive Weather Map
Tropical Storm Tracking
New forecast layout! Learn more

10-Day Weather Forecast

Advertisements
Track Severe Weather on mobile